sensor_id;sensor_type;location;lat;lon;timestamp;P1;durP1;ratioP1;P2;durP2;ratioP2
74967;SDS011;63523;51.880;12.630;2023-07-22T00:00:35;8.93;;;4.17;;
74967;SDS011;63523;51.880;12.630;2023-07-22T00:03:01;6.80;;;3.30;;
74967;SDS011;63523;51.880;12.630;2023-07-22T00:05:26;10.60;;;3.50;;
74967;SDS011;63523;51.880;12.630;2023-07-22T00:07:51;8.53;;;3.20;;
74967;SDS011;63523;51.880;12.630;2023-07-22T00:10:17;6.65;;;3.67;;
74967;SDS011;63523;51.880;12.630;2023-07-22T00:12:43;7.73;;;3.60;;
74967;SDS011;63523;51.880;12.630;2023-07-22T00:15:08;7.20;;;3.53;;
74967;SDS011;63523;51.880;12.630;2023-07-22T00:17:37;6.78;;;3.17;;
74967;SDS011;63523;51.880;12.630;2023-07-22T00:20:02;8.18;;;3.83;;
74967;SDS011;63523;51.880;12.630;2023-07-22T00:22:29;8.80;;;3.87;;
74967;SDS011;63523;51.880;12.630;2023-07-22T00:24:54;7.73;;;3.43;;
74967;SDS011;63523;51.880;12.630;2023-07-22T00:27:20;6.43;;;2.97;;
74967;SDS011;63523;51.880;12.630;2023-07-22T00:29:45;7.30;;;3.50;;
74967;SDS011;63523;51.880;12.630;2023-07-22T00:32:10;10.27;;;3.70;;
74967;SDS011;63523;51.880;12.630;2023-07-22T00:34:36;6.57;;;3.47;;
74967;SDS011;63523;51.880;12.630;2023-07-22T00:37:02;9.05;;;4.00;;
74967;SDS011;63523;51.880;12.630;2023-07-22T00:39:27;9.43;;;3.70;;
74967;SDS011;63523;51.880;12.630;2023-07-22T00:41:53;8.03;;;3.93;;
74967;SDS011;63523;51.880;12.630;2023-07-22T00:44:18;9.63;;;4.30;;
74967;SDS011;63523;51.880;12.630;2023-07-22T00:46:43;11.80;;;5.00;;
74967;SDS011;63523;51.880;12.630;2023-07-22T00:49:08;10.33;;;5.17;;
74967;SDS011;63523;51.880;12.630;2023-07-22T00:51:35;14.32;;;6.68;;
74967;SDS011;63523;51.880;12.630;2023-07-22T00:54:00;17.80;;;7.50;;
74967;SDS011;63523;51.880;12.630;2023-07-22T00:56:25;15.57;;;6.70;;
74967;SDS011;63523;51.880;12.630;2023-07-22T00:58:51;15.17;;;7.20;;
74967;SDS011;63523;51.880;12.630;2023-07-22T01:01:17;15.02;;;6.82;;
74967;SDS011;63523;51.880;12.630;2023-07-22T01:03:42;11.03;;;5.40;;
74967;SDS011;63523;51.880;12.630;2023-07-22T01:06:08;7.60;;;4.28;;
74967;SDS011;63523;51.880;12.630;2023-07-22T01:08:34;8.50;;;4.30;;
74967;SDS011;63523;51.880;12.630;2023-07-22T01:11:00;9.67;;;3.80;;
74967;SDS011;63523;51.880;12.630;2023-07-22T01:13:25;11.63;;;5.43;;
74967;SDS011;63523;51.880;12.630;2023-07-22T01:15:50;11.63;;;6.40;;
74967;SDS011;63523;51.880;12.630;2023-07-22T01:18:16;28.55;;;10.90;;
74967;SDS011;63523;51.880;12.630;2023-07-22T01:20:42;38.20;;;15.83;;
74967;SDS011;63523;51.880;12.630;2023-07-22T01:23:08;52.33;;;17.02;;
74967;SDS011;63523;51.880;12.630;2023-07-22T01:25:34;57.10;;;17.98;;
74967;SDS011;63523;51.880;12.630;2023-07-22T01:27:59;62.47;;;20.43;;
74967;SDS011;63523;51.880;12.630;2023-07-22T01:30:25;50.80;;;16.40;;
74967;SDS011;63523;51.880;12.630;2023-07-22T01:32:52;43.70;;;14.68;;
74967;SDS011;63523;51.880;12.630;2023-07-22T01:35:17;26.07;;;10.27;;
74967;SDS011;63523;51.880;12.630;2023-07-22T01:37:43;21.63;;;8.37;;
74967;SDS011;63523;51.880;12.630;2023-07-22T01:40:08;13.40;;;5.27;;
74967;SDS011;63523;51.880;12.630;2023-07-22T01:42:40;11.05;;;5.47;;
74967;SDS011;63523;51.880;12.630;2023-07-22T01:45:06;9.77;;;4.57;;
74967;SDS011;63523;51.880;12.630;2023-07-22T01:47:33;8.57;;;4.55;;
74967;SDS011;63523;51.880;12.630;2023-07-22T01:50:00;8.63;;;4.28;;
74967;SDS011;63523;51.880;12.630;2023-07-22T01:52:25;13.30;;;5.40;;
74967;SDS011;63523;51.880;12.630;2023-07-22T01:54:50;9.20;;;4.43;;
74967;SDS011;63523;51.880;12.630;2023-07-22T01:57:16;9.03;;;4.17;;
74967;SDS011;63523;51.880;12.630;2023-07-22T01:59:41;7.97;;;4.23;;
74967;SDS011;63523;51.880;12.630;2023-07-22T02:02:06;7.87;;;3.97;;
74967;SDS011;63523;51.880;12.630;2023-07-22T02:04:32;7.33;;;4.13;;
74967;SDS011;63523;51.880;12.630;2023-07-22T02:06:57;7.50;;;4.03;;
74967;SDS011;63523;51.880;12.630;2023-07-22T02:09:22;8.13;;;4.17;;
74967;SDS011;63523;51.880;12.630;2023-07-22T02:11:47;10.20;;;4.60;;
74967;SDS011;63523;51.880;12.630;2023-07-22T02:14:13;9.77;;;4.10;;
74967;SDS011;63523;51.880;12.630;2023-07-22T02:16:38;10.40;;;4.63;;
74967;SDS011;63523;51.880;12.630;2023-07-22T02:19:04;11.90;;;4.53;;
74967;SDS011;63523;51.880;12.630;2023-07-22T02:21:29;9.63;;;4.67;;
74967;SDS011;63523;51.880;12.630;2023-07-22T02:23:54;10.17;;;4.67;;
74967;SDS011;63523;51.880;12.630;2023-07-22T02:26:20;8.97;;;4.40;;
74967;SDS011;63523;51.880;12.630;2023-07-22T02:28:45;14.50;;;5.85;;
74967;SDS011;63523;51.880;12.630;2023-07-22T02:31:11;30.47;;;11.73;;
74967;SDS011;63523;51.880;12.630;2023-07-22T02:33:37;39.80;;;13.13;;
74967;SDS011;63523;51.880;12.630;2023-07-22T02:36:03;35.90;;;13.13;;
74967;SDS011;63523;51.880;12.630;2023-07-22T02:38:28;34.08;;;12.57;;
74967;SDS011;63523;51.880;12.630;2023-07-22T02:40:53;35.33;;;12.70;;
74967;SDS011;63523;51.880;12.630;2023-07-22T02:43:19;35.73;;;12.97;;
74967;SDS011;63523;51.880;12.630;2023-07-22T02:45:44;33.20;;;13.53;;
74967;SDS011;63523;51.880;12.630;2023-07-22T02:48:09;31.93;;;12.27;;
74967;SDS011;63523;51.880;12.630;2023-07-22T02:50:35;30.40;;;11.73;;
74967;SDS011;63523;51.880;12.630;2023-07-22T02:53:01;31.67;;;12.25;;
74967;SDS011;63523;51.880;12.630;2023-07-22T02:55:27;29.65;;;11.50;;
74967;SDS011;63523;51.880;12.630;2023-07-22T02:57:53;33.87;;;11.90;;
74967;SDS011;63523;51.880;12.630;2023-07-22T03:00:19;29.13;;;11.50;;
74967;SDS011;63523;51.880;12.630;2023-07-22T03:02:54;24.70;;;11.20;;
74967;SDS011;63523;51.880;12.630;2023-07-22T03:05:25;22.27;;;10.10;;
74967;SDS011;63523;51.880;12.630;2023-07-22T03:07:53;18.13;;;8.32;;
74967;SDS011;63523;51.880;12.630;2023-07-22T03:10:18;17.93;;;8.00;;
74967;SDS011;63523;51.880;12.630;2023-07-22T03:12:43;14.27;;;6.70;;
74967;SDS011;63523;51.880;12.630;2023-07-22T03:15:09;14.93;;;6.10;;
74967;SDS011;63523;51.880;12.630;2023-07-22T03:17:35;13.02;;;6.20;;
74967;SDS011;63523;51.880;12.630;2023-07-22T03:20:02;15.32;;;6.50;;
74967;SDS011;63523;51.880;12.630;2023-07-22T03:22:30;15.43;;;7.00;;
74967;SDS011;63523;51.880;12.630;2023-07-22T03:24:56;13.32;;;6.47;;
74967;SDS011;63523;51.880;12.630;2023-07-22T03:27:21;13.47;;;6.70;;
74967;SDS011;63523;51.880;12.630;2023-07-22T03:29:46;11.13;;;5.10;;
74967;SDS011;63523;51.880;12.630;2023-07-22T03:32:12;8.60;;;4.50;;
74967;SDS011;63523;51.880;12.630;2023-07-22T03:34:37;9.60;;;4.83;;
74967;SDS011;63523;51.880;12.630;2023-07-22T03:37:03;9.43;;;4.60;;
74967;SDS011;63523;51.880;12.630;2023-07-22T03:39:28;8.80;;;4.57;;
74967;SDS011;63523;51.880;12.630;2023-07-22T03:41:53;9.27;;;4.70;;
74967;SDS011;63523;51.880;12.630;2023-07-22T03:44:19;8.67;;;4.43;;
74967;SDS011;63523;51.880;12.630;2023-07-22T03:46:44;8.95;;;4.70;;
74967;SDS011;63523;51.880;12.630;2023-07-22T03:49:09;8.33;;;4.57;;
74967;SDS011;63523;51.880;12.630;2023-07-22T03:51:35;10.07;;;4.63;;
74967;SDS011;63523;51.880;12.630;2023-07-22T03:54:00;10.00;;;4.60;;
74967;SDS011;63523;51.880;12.630;2023-07-22T03:56:26;9.43;;;5.13;;
74967;SDS011;63523;51.880;12.630;2023-07-22T03:58:51;8.80;;;4.68;;
74967;SDS011;63523;51.880;12.630;2023-07-22T04:01:17;10.70;;;5.03;;
74967;SDS011;63523;51.880;12.630;2023-07-22T04:03:43;9.32;;;4.93;;
74967;SDS011;63523;51.880;12.630;2023-07-22T04:06:09;10.90;;;5.72;;
74967;SDS011;63523;51.880;12.630;2023-07-22T04:08:34;11.40;;;5.43;;
74967;SDS011;63523;51.880;12.630;2023-07-22T04:10:59;16.20;;;5.63;;
74967;SDS011;63523;51.880;12.630;2023-07-22T04:13:25;12.23;;;6.43;;
74967;SDS011;63523;51.880;12.630;2023-07-22T04:15:51;24.00;;;8.63;;
74967;SDS011;63523;51.880;12.630;2023-07-22T04:18:17;18.17;;;8.00;;
74967;SDS011;63523;51.880;12.630;2023-07-22T04:20:43;17.65;;;8.25;;
74967;SDS011;63523;51.880;12.630;2023-07-22T04:23:09;32.10;;;12.88;;
74967;SDS011;63523;51.880;12.630;2023-07-22T04:25:41;29.20;;;12.30;;
74967;SDS011;63523;51.880;12.630;2023-07-22T04:28:07;21.30;;;10.05;;
74967;SDS011;63523;51.880;12.630;2023-07-22T04:30:34;20.63;;;8.53;;
74967;SDS011;63523;51.880;12.630;2023-07-22T04:32:59;14.88;;;6.97;;
74967;SDS011;63523;51.880;12.630;2023-07-22T04:35:25;14.73;;;7.10;;
74967;SDS011;63523;51.880;12.630;2023-07-22T04:37:50;11.23;;;5.63;;
74967;SDS011;63523;51.880;12.630;2023-07-22T04:40:18;9.53;;;4.80;;
74967;SDS011;63523;51.880;12.630;2023-07-22T04:42:47;11.05;;;5.85;;
74967;SDS011;63523;51.880;12.630;2023-07-22T04:45:22;12.53;;;5.63;;
74967;SDS011;63523;51.880;12.630;2023-07-22T04:47:49;11.18;;;5.32;;
74967;SDS011;63523;51.880;12.630;2023-07-22T04:50:20;10.35;;;4.88;;
74967;SDS011;63523;51.880;12.630;2023-07-22T04:52:48;13.77;;;4.78;;
74967;SDS011;63523;51.880;12.630;2023-07-22T04:55:13;6.63;;;3.87;;
74967;SDS011;63523;51.880;12.630;2023-07-22T04:57:39;10.33;;;4.60;;
74967;SDS011;63523;51.880;12.630;2023-07-22T05:00:06;8.38;;;4.20;;
74967;SDS011;63523;51.880;12.630;2023-07-22T05:02:39;8.20;;;4.68;;
74967;SDS011;63523;51.880;12.630;2023-07-22T05:05:04;9.77;;;4.23;;
74967;SDS011;63523;51.880;12.630;2023-07-22T05:07:30;9.80;;;4.20;;
74967;SDS011;63523;51.880;12.630;2023-07-22T05:09:55;9.70;;;4.60;;
74967;SDS011;63523;51.880;12.630;2023-07-22T05:12:20;8.00;;;4.37;;
74967;SDS011;63523;51.880;12.630;2023-07-22T05:14:46;9.97;;;4.87;;
74967;SDS011;63523;51.880;12.630;2023-07-22T05:17:11;8.97;;;4.67;;
74967;SDS011;63523;51.880;12.630;2023-07-22T05:19:36;10.07;;;4.80;;
74967;SDS011;63523;51.880;12.630;2023-07-22T05:22:02;10.87;;;4.93;;
74967;SDS011;63523;51.880;12.630;2023-07-22T05:24:27;7.15;;;4.47;;
74967;SDS011;63523;51.880;12.630;2023-07-22T05:26:52;10.00;;;4.93;;
74967;SDS011;63523;51.880;12.630;2023-07-22T05:29:19;8.52;;;5.20;;
74967;SDS011;63523;51.880;12.630;2023-07-22T05:31:44;7.97;;;4.50;;
74967;SDS011;63523;51.880;12.630;2023-07-22T05:34:10;9.20;;;4.57;;
74967;SDS011;63523;51.880;12.630;2023-07-22T05:36:35;9.57;;;5.07;;
74967;SDS011;63523;51.880;12.630;2023-07-22T05:39:00;7.73;;;4.77;;
74967;SDS011;63523;51.880;12.630;2023-07-22T05:41:25;9.10;;;4.38;;
74967;SDS011;63523;51.880;12.630;2023-07-22T05:43:51;9.97;;;4.73;;
74967;SDS011;63523;51.880;12.630;2023-07-22T05:46:16;8.33;;;4.67;;
74967;SDS011;63523;51.880;12.630;2023-07-22T05:48:42;9.43;;;5.20;;
74967;SDS011;63523;51.880;12.630;2023-07-22T05:51:07;10.93;;;5.07;;
74967;SDS011;63523;51.880;12.630;2023-07-22T05:53:32;8.77;;;4.50;;
74967;SDS011;63523;51.880;12.630;2023-07-22T05:55:58;9.32;;;4.70;;
74967;SDS011;63523;51.880;12.630;2023-07-22T05:58:23;10.03;;;5.13;;
74967;SDS011;63523;51.880;12.630;2023-07-22T06:00:49;9.20;;;4.40;;
74967;SDS011;63523;51.880;12.630;2023-07-22T06:03:16;11.77;;;5.97;;
74967;SDS011;63523;51.880;12.630;2023-07-22T06:05:44;15.17;;;6.97;;
74967;SDS011;63523;51.880;12.630;2023-07-22T06:08:10;17.13;;;7.75;;
74967;SDS011;63523;51.880;12.630;2023-07-22T06:10:35;18.47;;;8.37;;
74967;SDS011;63523;51.880;12.630;2023-07-22T06:13:03;20.45;;;9.07;;
74967;SDS011;63523;51.880;12.630;2023-07-22T06:15:32;20.58;;;8.27;;
74967;SDS011;63523;51.880;12.630;2023-07-22T06:17:58;19.33;;;7.90;;
74967;SDS011;63523;51.880;12.630;2023-07-22T06:20:24;19.98;;;8.27;;
74967;SDS011;63523;51.880;12.630;2023-07-22T06:22:50;18.73;;;8.68;;
74967;SDS011;63523;51.880;12.630;2023-07-22T06:25:15;17.77;;;7.70;;
74967;SDS011;63523;51.880;12.630;2023-07-22T06:27:41;19.38;;;7.47;;
74967;SDS011;63523;51.880;12.630;2023-07-22T06:30:06;19.33;;;7.83;;
74967;SDS011;63523;51.880;12.630;2023-07-22T06:32:36;19.17;;;7.20;;
74967;SDS011;63523;51.880;12.630;2023-07-22T06:35:12;16.55;;;6.43;;
74967;SDS011;63523;51.880;12.630;2023-07-22T06:37:37;16.33;;;6.53;;
74967;SDS011;63523;51.880;12.630;2023-07-22T06:40:03;18.53;;;6.70;;
74967;SDS011;63523;51.880;12.630;2023-07-22T06:42:29;17.60;;;7.38;;
74967;SDS011;63523;51.880;12.630;2023-07-22T06:44:55;22.17;;;8.37;;
74967;SDS011;63523;51.880;12.630;2023-07-22T06:47:20;16.17;;;6.63;;
74967;SDS011;63523;51.880;12.630;2023-07-22T06:49:45;10.83;;;4.90;;
74967;SDS011;63523;51.880;12.630;2023-07-22T06:52:11;13.23;;;5.17;;
74967;SDS011;63523;51.880;12.630;2023-07-22T06:54:36;10.23;;;4.33;;
74967;SDS011;63523;51.880;12.630;2023-07-22T06:57:02;8.40;;;3.20;;
74967;SDS011;63523;51.880;12.630;2023-07-22T06:59:27;6.63;;;2.50;;
74967;SDS011;63523;51.880;12.630;2023-07-22T07:01:53;10.27;;;3.33;;
74967;SDS011;63523;51.880;12.630;2023-07-22T07:04:18;7.88;;;3.50;;
74967;SDS011;63523;51.880;12.630;2023-07-22T07:06:43;10.23;;;3.77;;
74967;SDS011;63523;51.880;12.630;2023-07-22T07:09:10;10.65;;;4.13;;
74967;SDS011;63523;51.880;12.630;2023-07-22T07:11:36;10.03;;;3.43;;
74967;SDS011;63523;51.880;12.630;2023-07-22T07:14:01;12.77;;;4.57;;
74967;SDS011;63523;51.880;12.630;2023-07-22T07:16:27;9.07;;;3.80;;
74967;SDS011;63523;51.880;12.630;2023-07-22T07:18:54;6.35;;;2.63;;
74967;SDS011;63523;51.880;12.630;2023-07-22T07:21:20;8.57;;;2.80;;
74967;SDS011;63523;51.880;12.630;2023-07-22T07:23:47;8.57;;;2.47;;
74967;SDS011;63523;51.880;12.630;2023-07-22T07:26:13;10.37;;;3.60;;
74967;SDS011;63523;51.880;12.630;2023-07-22T07:28:38;11.55;;;3.97;;
74967;SDS011;63523;51.880;12.630;2023-07-22T07:31:04;12.87;;;3.80;;
74967;SDS011;63523;51.880;12.630;2023-07-22T07:33:30;13.27;;;4.72;;
74967;SDS011;63523;51.880;12.630;2023-07-22T07:38:57;10.80;;;3.97;;
74967;SDS011;63523;51.880;12.630;2023-07-22T07:41:22;8.30;;;2.57;;
74967;SDS011;63523;51.880;12.630;2023-07-22T07:43:48;6.30;;;2.38;;
74967;SDS011;63523;51.880;12.630;2023-07-22T07:48:42;10.57;;;3.50;;
74967;SDS011;63523;51.880;12.630;2023-07-22T07:51:08;13.93;;;4.00;;
74967;SDS011;63523;51.880;12.630;2023-07-22T07:53:33;11.98;;;4.03;;
74967;SDS011;63523;51.880;12.630;2023-07-22T07:55:58;11.30;;;4.00;;
74967;SDS011;63523;51.880;12.630;2023-07-22T07:58:24;8.43;;;3.07;;
74967;SDS011;63523;51.880;12.630;2023-07-22T08:00:49;9.97;;;3.50;;
74967;SDS011;63523;51.880;12.630;2023-07-22T08:03:14;7.53;;;2.67;;
74967;SDS011;63523;51.880;12.630;2023-07-22T08:05:40;7.60;;;2.70;;
74967;SDS011;63523;51.880;12.630;2023-07-22T08:08:05;7.78;;;2.22;;
74967;SDS011;63523;51.880;12.630;2023-07-22T08:10:31;7.23;;;2.50;;
74967;SDS011;63523;51.880;12.630;2023-07-22T08:12:57;7.10;;;2.70;;
74967;SDS011;63523;51.880;12.630;2023-07-22T08:15:22;7.20;;;2.53;;
74967;SDS011;63523;51.880;12.630;2023-07-22T08:17:48;6.43;;;2.40;;
74967;SDS011;63523;51.880;12.630;2023-07-22T08:20:13;8.03;;;2.97;;
74967;SDS011;63523;51.880;12.630;2023-07-22T08:22:39;10.45;;;3.58;;
74967;SDS011;63523;51.880;12.630;2023-07-22T08:25:04;10.30;;;3.30;;
74967;SDS011;63523;51.880;12.630;2023-07-22T08:27:30;11.38;;;3.72;;
74967;SDS011;63523;51.880;12.630;2023-07-22T08:29:55;6.17;;;2.50;;
74967;SDS011;63523;51.880;12.630;2023-07-22T08:32:20;8.97;;;3.07;;
74967;SDS011;63523;51.880;12.630;2023-07-22T08:34:46;7.77;;;2.67;;
74967;SDS011;63523;51.880;12.630;2023-07-22T08:37:11;6.23;;;2.07;;
74967;SDS011;63523;51.880;12.630;2023-07-22T08:39:37;8.73;;;2.70;;
74967;SDS011;63523;51.880;12.630;2023-07-22T08:42:03;6.00;;;2.47;;
74967;SDS011;63523;51.880;12.630;2023-07-22T08:44:31;7.25;;;2.10;;
74967;SDS011;63523;51.880;12.630;2023-07-22T08:47:00;8.90;;;3.75;;
74967;SDS011;63523;51.880;12.630;2023-07-22T08:49:28;8.38;;;3.60;;
74967;SDS011;63523;51.880;12.630;2023-07-22T08:51:55;7.27;;;3.30;;
74967;SDS011;63523;51.880;12.630;2023-07-22T08:54:23;9.40;;;3.72;;
74967;SDS011;63523;51.880;12.630;2023-07-22T08:56:48;9.75;;;3.50;;
74967;SDS011;63523;51.880;12.630;2023-07-22T08:59:15;11.45;;;4.43;;
74967;SDS011;63523;51.880;12.630;2023-07-22T09:01:42;9.63;;;3.70;;
74967;SDS011;63523;51.880;12.630;2023-07-22T09:04:09;6.37;;;2.47;;
74967;SDS011;63523;51.880;12.630;2023-07-22T09:06:34;5.65;;;2.25;;
74967;SDS011;63523;51.880;12.630;2023-07-22T09:09:01;5.00;;;1.93;;
74967;SDS011;63523;51.880;12.630;2023-07-22T09:11:29;8.10;;;3.20;;
74967;SDS011;63523;51.880;12.630;2023-07-22T09:13:55;9.77;;;4.13;;
74967;SDS011;63523;51.880;12.630;2023-07-22T09:16:20;8.30;;;2.87;;
74967;SDS011;63523;51.880;12.630;2023-07-22T09:18:46;5.55;;;1.75;;
74967;SDS011;63523;51.880;12.630;2023-07-22T09:21:12;6.30;;;2.13;;
74967;SDS011;63523;51.880;12.630;2023-07-22T09:23:38;6.33;;;2.33;;
74967;SDS011;63523;51.880;12.630;2023-07-22T09:26:10;7.03;;;2.75;;
74967;SDS011;63523;51.880;12.630;2023-07-22T09:28:47;9.30;;;2.78;;
74967;SDS011;63523;51.880;12.630;2023-07-22T09:31:22;7.23;;;3.00;;
74967;SDS011;63523;51.880;12.630;2023-07-22T09:33:51;10.90;;;4.30;;
74967;SDS011;63523;51.880;12.630;2023-07-22T09:36:19;6.82;;;2.75;;
74967;SDS011;63523;51.880;12.630;2023-07-22T09:38:44;8.03;;;2.87;;
74967;SDS011;63523;51.880;12.630;2023-07-22T09:41:10;6.40;;;2.13;;
74967;SDS011;63523;51.880;12.630;2023-07-22T09:43:36;6.27;;;2.53;;
74967;SDS011;63523;51.880;12.630;2023-07-22T09:46:09;8.33;;;2.97;;
74967;SDS011;63523;51.880;12.630;2023-07-22T09:48:44;8.68;;;2.80;;
74967;SDS011;63523;51.880;12.630;2023-07-22T09:51:16;9.07;;;2.80;;
74967;SDS011;63523;51.880;12.630;2023-07-22T09:53:45;7.85;;;2.88;;
74967;SDS011;63523;51.880;12.630;2023-07-22T09:56:11;6.32;;;2.67;;
74967;SDS011;63523;51.880;12.630;2023-07-22T09:58:36;7.60;;;2.63;;
74967;SDS011;63523;51.880;12.630;2023-07-22T10:01:03;10.00;;;3.90;;
74967;SDS011;63523;51.880;12.630;2023-07-22T10:03:30;7.20;;;3.43;;
74967;SDS011;63523;51.880;12.630;2023-07-22T10:06:04;9.45;;;3.88;;
74967;SDS011;63523;51.880;12.630;2023-07-22T10:08:31;7.80;;;3.15;;
74967;SDS011;63523;51.880;12.630;2023-07-22T10:11:03;6.97;;;2.97;;
74967;SDS011;63523;51.880;12.630;2023-07-22T10:13:39;6.82;;;3.00;;
74967;SDS011;63523;51.880;12.630;2023-07-22T10:16:07;6.80;;;2.70;;
74967;SDS011;63523;51.880;12.630;2023-07-22T10:18:36;8.60;;;2.58;;
74967;SDS011;63523;51.880;12.630;2023-07-22T10:21:06;5.97;;;2.53;;
74967;SDS011;63523;51.880;12.630;2023-07-22T10:23:32;6.63;;;2.50;;
74967;SDS011;63523;51.880;12.630;2023-07-22T10:26:00;6.40;;;2.95;;
74967;SDS011;63523;51.880;12.630;2023-07-22T10:28:30;5.70;;;2.73;;
74967;SDS011;63523;51.880;12.630;2023-07-22T10:31:42;7.88;;;3.25;;
74967;SDS011;63523;51.880;12.630;2023-07-22T10:34:03;7.63;;;3.72;;
74967;SDS011;63523;51.880;12.630;2023-07-22T10:39:44;5.30;;;2.75;;
74967;SDS011;63523;51.880;12.630;2023-07-22T10:42:31;7.03;;;2.87;;
74967;SDS011;63523;51.880;12.630;2023-07-22T10:44:59;7.53;;;3.03;;
74967;SDS011;63523;51.880;12.630;2023-07-22T10:47:31;7.95;;;3.28;;
74967;SDS011;63523;51.880;12.630;2023-07-22T10:50:05;8.00;;;3.38;;
74967;SDS011;63523;51.880;12.630;2023-07-22T10:55:27;7.40;;;3.50;;
74967;SDS011;63523;51.880;12.630;2023-07-22T10:57:53;7.10;;;3.30;;
74967;SDS011;63523;51.880;12.630;2023-07-22T11:00:21;6.83;;;3.53;;
74967;SDS011;63523;51.880;12.630;2023-07-22T11:02:47;6.72;;;2.95;;
74967;SDS011;63523;51.880;12.630;2023-07-22T11:08:15;5.40;;;2.70;;
74967;SDS011;63523;51.880;12.630;2023-07-22T11:11:02;5.87;;;2.93;;
74967;SDS011;63523;51.880;12.630;2023-07-22T11:13:27;6.85;;;2.97;;
74967;SDS011;63523;51.880;12.630;2023-07-22T11:15:57;5.90;;;2.70;;
74967;SDS011;63523;51.880;12.630;2023-07-22T11:18:34;7.30;;;3.60;;
74967;SDS011;63523;51.880;12.630;2023-07-22T11:21:00;8.23;;;2.75;;
74967;SDS011;63523;51.880;12.630;2023-07-22T11:23:26;5.77;;;3.13;;
74967;SDS011;63523;51.880;12.630;2023-07-22T11:25:51;6.93;;;3.00;;
74967;SDS011;63523;51.880;12.630;2023-07-22T11:28:16;6.27;;;3.30;;
74967;SDS011;63523;51.880;12.630;2023-07-22T11:30:42;7.32;;;3.20;;
74967;SDS011;63523;51.880;12.630;2023-07-22T11:33:07;6.40;;;3.23;;
74967;SDS011;63523;51.880;12.630;2023-07-22T11:35:32;6.57;;;3.57;;
74967;SDS011;63523;51.880;12.630;2023-07-22T11:38:01;8.33;;;3.17;;
74967;SDS011;63523;51.880;12.630;2023-07-22T11:40:34;7.82;;;3.35;;
74967;SDS011;63523;51.880;12.630;2023-07-22T11:43:00;8.13;;;3.63;;
74967;SDS011;63523;51.880;12.630;2023-07-22T11:45:25;6.13;;;3.15;;
74967;SDS011;63523;51.880;12.630;2023-07-22T11:47:50;6.77;;;3.00;;
74967;SDS011;63523;51.880;12.630;2023-07-22T11:50:16;6.10;;;3.13;;
74967;SDS011;63523;51.880;12.630;2023-07-22T11:52:41;6.30;;;3.60;;
74967;SDS011;63523;51.880;12.630;2023-07-22T11:55:06;7.47;;;3.20;;
74967;SDS011;63523;51.880;12.630;2023-07-22T11:57:32;6.57;;;3.10;;
74967;SDS011;63523;51.880;12.630;2023-07-22T11:59:57;6.82;;;3.25;;
74967;SDS011;63523;51.880;12.630;2023-07-22T12:02:24;7.77;;;3.33;;
74967;SDS011;63523;51.880;12.630;2023-07-22T12:04:59;5.90;;;3.10;;
74967;SDS011;63523;51.880;12.630;2023-07-22T12:07:27;6.00;;;3.05;;
74967;SDS011;63523;51.880;12.630;2023-07-22T12:10:00;6.15;;;3.22;;
74967;SDS011;63523;51.880;12.630;2023-07-22T12:12:37;5.97;;;3.25;;
74967;SDS011;63523;51.880;12.630;2023-07-22T12:15:08;6.38;;;3.42;;
74967;SDS011;63523;51.880;12.630;2023-07-22T12:20:41;7.30;;;3.45;;
74967;SDS011;63523;51.880;12.630;2023-07-22T12:23:07;5.70;;;2.90;;
74967;SDS011;63523;51.880;12.630;2023-07-22T12:25:32;6.43;;;3.43;;
74967;SDS011;63523;51.880;12.630;2023-07-22T12:27:57;8.23;;;3.10;;
74967;SDS011;63523;51.880;12.630;2023-07-22T12:30:23;7.65;;;3.47;;
74967;SDS011;63523;51.880;12.630;2023-07-22T12:32:49;5.83;;;3.07;;
74967;SDS011;63523;51.880;12.630;2023-07-22T12:35:14;7.20;;;3.57;;
74967;SDS011;63523;51.880;12.630;2023-07-22T12:37:39;5.55;;;2.90;;
74967;SDS011;63523;51.880;12.630;2023-07-22T12:40:05;6.47;;;3.27;;
74967;SDS011;63523;51.880;12.630;2023-07-22T12:42:33;5.93;;;3.08;;
74967;SDS011;63523;51.880;12.630;2023-07-22T12:44:59;5.60;;;2.50;;
74967;SDS011;63523;51.880;12.630;2023-07-22T12:47:24;6.43;;;2.97;;
74967;SDS011;63523;51.880;12.630;2023-07-22T12:49:49;5.93;;;2.80;;
74967;SDS011;63523;51.880;12.630;2023-07-22T12:52:14;5.60;;;2.70;;
74967;SDS011;63523;51.880;12.630;2023-07-22T12:54:41;6.03;;;2.87;;
74967;SDS011;63523;51.880;12.630;2023-07-22T12:57:06;5.57;;;2.75;;
74967;SDS011;63523;51.880;12.630;2023-07-22T12:59:31;6.23;;;2.37;;
74967;SDS011;63523;51.880;12.630;2023-07-22T13:01:57;6.73;;;3.10;;
74967;SDS011;63523;51.880;12.630;2023-07-22T13:04:23;6.97;;;2.85;;
74967;SDS011;63523;51.880;12.630;2023-07-22T13:06:49;5.90;;;2.83;;
74967;SDS011;63523;51.880;12.630;2023-07-22T13:09:16;6.00;;;2.83;;
74967;SDS011;63523;51.880;12.630;2023-07-22T13:11:42;6.50;;;2.90;;
74967;SDS011;63523;51.880;12.630;2023-07-22T13:14:07;6.30;;;2.90;;
74967;SDS011;63523;51.880;12.630;2023-07-22T13:16:32;8.23;;;2.63;;
74967;SDS011;63523;51.880;12.630;2023-07-22T13:18:58;5.83;;;3.10;;
74967;SDS011;63523;51.880;12.630;2023-07-22T13:21:25;6.22;;;2.45;;
74967;SDS011;63523;51.880;12.630;2023-07-22T13:23:51;5.13;;;2.47;;
74967;SDS011;63523;51.880;12.630;2023-07-22T13:26:16;7.53;;;3.47;;
74967;SDS011;63523;51.880;12.630;2023-07-22T13:28:41;5.40;;;2.60;;
74967;SDS011;63523;51.880;12.630;2023-07-22T13:31:07;6.23;;;2.73;;
74967;SDS011;63523;51.880;12.630;2023-07-22T13:33:32;5.30;;;2.70;;
74967;SDS011;63523;51.880;12.630;2023-07-22T13:35:57;5.97;;;2.80;;
74967;SDS011;63523;51.880;12.630;2023-07-22T13:38:22;7.60;;;3.60;;
74967;SDS011;63523;51.880;12.630;2023-07-22T13:40:48;8.13;;;3.77;;
74967;SDS011;63523;51.880;12.630;2023-07-22T13:43:13;9.67;;;4.20;;
74967;SDS011;63523;51.880;12.630;2023-07-22T13:45:38;9.00;;;3.70;;
74967;SDS011;63523;51.880;12.630;2023-07-22T13:48:04;9.53;;;3.83;;
74967;SDS011;63523;51.880;12.630;2023-07-22T13:50:29;9.50;;;4.32;;
74967;SDS011;63523;51.880;12.630;2023-07-22T13:52:55;6.80;;;2.90;;
74967;SDS011;63523;51.880;12.630;2023-07-22T13:55:21;6.45;;;2.80;;
74967;SDS011;63523;51.880;12.630;2023-07-22T13:57:46;5.60;;;2.60;;
74967;SDS011;63523;51.880;12.630;2023-07-22T14:00:11;6.23;;;3.20;;
74967;SDS011;63523;51.880;12.630;2023-07-22T14:02:38;9.07;;;4.03;;
74967;SDS011;63523;51.880;12.630;2023-07-22T14:05:03;8.87;;;3.50;;
74967;SDS011;63523;51.880;12.630;2023-07-22T14:07:29;6.75;;;3.10;;
74967;SDS011;63523;51.880;12.630;2023-07-22T14:09:54;6.03;;;2.80;;
74967;SDS011;63523;51.880;12.630;2023-07-22T14:12:21;5.63;;;2.80;;
74967;SDS011;63523;51.880;12.630;2023-07-22T14:14:46;7.33;;;3.40;;
74967;SDS011;63523;51.880;12.630;2023-07-22T14:17:12;8.07;;;3.63;;
74967;SDS011;63523;51.880;12.630;2023-07-22T14:19:37;6.97;;;3.37;;
74967;SDS011;63523;51.880;12.630;2023-07-22T14:22:03;6.77;;;3.10;;
74967;SDS011;63523;51.880;12.630;2023-07-22T14:24:29;5.97;;;2.55;;
74967;SDS011;63523;51.880;12.630;2023-07-22T14:26:54;7.23;;;2.70;;
74967;SDS011;63523;51.880;12.630;2023-07-22T14:29:19;5.80;;;2.70;;
74967;SDS011;63523;51.880;12.630;2023-07-22T14:31:46;5.80;;;2.35;;
74967;SDS011;63523;51.880;12.630;2023-07-22T14:34:11;4.83;;;2.43;;
74967;SDS011;63523;51.880;12.630;2023-07-22T14:36:36;5.90;;;2.67;;
74967;SDS011;63523;51.880;12.630;2023-07-22T14:39:02;4.88;;;2.50;;
74967;SDS011;63523;51.880;12.630;2023-07-22T14:41:27;6.23;;;2.70;;